createdAt,value
2023-05-19T00:00:57.901Z,11.46
2023-05-19T00:03:25.180Z,11.44
2023-05-19T00:05:53.883Z,11.43
2023-05-19T00:08:23.291Z,11.29
2023-05-19T00:10:49.964Z,11.33
2023-05-19T00:13:16.625Z,11.32
2023-05-19T00:15:43.343Z,11.19
2023-05-19T00:18:10.015Z,11.21
2023-05-19T00:20:37.963Z,11.28
2023-05-19T00:23:04.367Z,11.34
2023-05-19T00:25:30.765Z,11.38
2023-05-19T00:27:59.114Z,11.44
2023-05-19T00:30:26.051Z,11.36
2023-05-19T00:32:52.591Z,11.18
2023-05-19T00:35:20.125Z,11.10
2023-05-19T00:37:46.665Z,11.11
2023-05-19T00:40:13.584Z,11.10
2023-05-19T00:42:41.217Z,11.14
2023-05-19T00:45:08.503Z,11.20
2023-05-19T00:47:35.128Z,11.24
2023-05-19T00:50:01.785Z,11.26
2023-05-19T00:52:28.290Z,11.28
2023-05-19T00:54:55.918Z,11.23
2023-05-19T00:57:22.599Z,11.21
2023-05-19T00:59:49.081Z,11.27
2023-05-19T01:02:15.773Z,11.31
2023-05-19T01:04:44.790Z,11.37
2023-05-19T01:07:12.460Z,11.35
2023-05-19T01:09:40.576Z,11.34
2023-05-19T01:12:08.575Z,11.34
2023-05-19T01:14:35.192Z,11.33
2023-05-19T01:17:09.947Z,11.36
2023-05-19T01:20:07.112Z,11.38
2023-05-19T01:23:23.899Z,11.31
2023-05-19T01:25:53.205Z,11.23
2023-05-19T01:28:19.620Z,11.25
2023-05-19T01:30:52.501Z,11.23
2023-05-19T01:33:21.003Z,11.23
2023-05-19T01:35:49.080Z,11.25
2023-05-19T01:38:17.762Z,11.22
2023-05-19T01:40:47.068Z,11.18
2023-05-19T01:43:18.168Z,11.14
2023-05-19T01:45:45.475Z,11.13
2023-05-19T01:48:13.609Z,11.10
2023-05-19T01:50:41.255Z,11.12
2023-05-19T01:53:08.043Z,11.20
2023-05-19T01:55:44.585Z,11.25
2023-05-19T01:58:32.852Z,11.23
2023-05-19T02:01:27.442Z,11.21
2023-05-19T02:04:18.545Z,11.16
2023-05-19T02:06:51.250Z,11.05
2023-05-19T02:09:26.773Z,11.00
2023-05-19T02:12:03.234Z,10.88
2023-05-19T02:14:35.365Z,10.83
2023-05-19T02:17:04.813Z,10.82
2023-05-19T02:19:33.344Z,10.83
2023-05-19T02:22:00.127Z,10.92
2023-05-19T02:24:26.671Z,10.98
2023-05-19T02:26:53.951Z,10.98
2023-05-19T02:29:21.099Z,10.96
2023-05-19T02:31:47.968Z,11.02
2023-05-19T02:34:14.542Z,11.06
2023-05-19T02:36:43.109Z,11.05
2023-05-19T02:39:10.974Z,11.03
2023-05-19T02:41:38.168Z,10.96
2023-05-19T02:44:04.930Z,10.92
2023-05-19T02:46:32.246Z,10.96
2023-05-19T02:48:59.289Z,11.01
2023-05-19T02:51:25.737Z,11.02
2023-05-19T02:53:52.299Z,11.03
2023-05-19T02:56:18.802Z,10.99
2023-05-19T02:58:45.393Z,10.95
2023-05-19T03:01:12.076Z,10.98
2023-05-19T03:03:38.701Z,11.03
2023-05-19T03:06:08.595Z,11.05
2023-05-19T03:08:36.029Z,11.08
2023-05-19T03:11:03.325Z,11.07
2023-05-19T03:13:29.967Z,10.97
2023-05-19T03:15:58.828Z,10.88
2023-05-19T03:18:28.525Z,10.81
2023-05-19T03:20:55.107Z,10.80
2023-05-19T03:23:22.378Z,10.81
2023-05-19T03:25:48.951Z,10.84
2023-05-19T03:28:15.714Z,10.86
2023-05-19T03:30:42.219Z,10.86
2023-05-19T03:33:13.208Z,10.90
2023-05-19T03:35:40.479Z,10.78
2023-05-19T03:38:07.151Z,10.79
2023-05-19T03:40:34.003Z,10.82
2023-05-19T03:43:06.185Z,10.86
2023-05-19T03:45:37.905Z,10.91
2023-05-19T03:48:21.929Z,10.93
2023-05-19T03:51:18.324Z,10.93
2023-05-19T03:53:46.917Z,10.96
2023-05-19T03:56:13.921Z,10.96
2023-05-19T03:58:44.865Z,10.93
2023-05-19T04:01:11.582Z,10.86
2023-05-19T04:03:38.177Z,10.81
2023-05-19T04:06:04.712Z,10.78
2023-05-19T04:08:32.105Z,10.77
2023-05-19T04:10:58.592Z,10.77
2023-05-19T04:13:25.406Z,10.78
2023-05-19T04:15:52.152Z,10.74
2023-05-19T04:18:18.660Z,10.74
2023-05-19T04:20:45.131Z,10.78
2023-05-19T04:23:11.641Z,10.81
2023-05-19T04:25:38.234Z,10.76
2023-05-19T04:28:04.767Z,10.71
2023-05-19T04:30:31.474Z,10.59
2023-05-19T04:32:59.182Z,10.52
2023-05-19T04:35:25.784Z,10.52
2023-05-19T04:37:54.389Z,10.53
2023-05-19T04:40:27.540Z,10.53
2023-05-19T04:42:54.085Z,10.48
2023-05-19T04:45:20.585Z,10.45
2023-05-19T04:47:50.438Z,10.43
2023-05-19T04:50:17.250Z,10.49
2023-05-19T04:52:47.132Z,10.52
2023-05-19T04:55:14.483Z,10.54
2023-05-19T04:57:41.701Z,10.67
2023-05-19T05:00:12.727Z,10.81
2023-05-19T05:02:51.400Z,10.94
2023-05-19T05:05:21.111Z,10.95
2023-05-19T05:07:47.694Z,10.97
2023-05-19T05:10:14.183Z,11.01
2023-05-19T05:12:41.102Z,11.06
2023-05-19T05:15:08.485Z,11.11
2023-05-19T05:17:35.915Z,11.17
2023-05-19T05:20:05.954Z,11.20
2023-05-19T05:22:32.901Z,11.22
2023-05-19T05:24:59.884Z,11.23
2023-05-19T05:27:27.007Z,11.17
2023-05-19T05:29:54.386Z,11.17
2023-05-19T05:32:21.790Z,11.23
2023-05-19T05:34:48.855Z,11.35
2023-05-19T05:37:16.028Z,11.47
2023-05-19T05:39:42.588Z,11.49
2023-05-19T05:42:10.567Z,11.51
2023-05-19T05:44:38.350Z,11.51
2023-05-19T05:47:06.314Z,11.51
2023-05-19T05:49:32.988Z,11.60
2023-05-19T05:52:05.665Z,11.66
2023-05-19T05:54:37.650Z,11.76
2023-05-19T05:57:04.756Z,11.89
2023-05-19T05:59:31.313Z,11.86
2023-05-19T06:01:57.828Z,11.85
2023-05-19T06:04:25.615Z,11.92
2023-05-19T06:06:56.955Z,11.98
2023-05-19T06:09:25.092Z,12.11
2023-05-19T06:11:51.837Z,12.21
2023-05-19T06:14:18.730Z,12.20
2023-05-19T06:17:03.446Z,12.23
2023-05-19T06:19:30.321Z,12.25
2023-05-19T06:21:56.825Z,12.24
2023-05-19T06:24:23.371Z,12.16
2023-05-19T06:26:49.849Z,12.09
2023-05-19T06:29:18.262Z,12.11
2023-05-19T06:31:44.917Z,12.17
2023-05-19T06:34:17.492Z,12.26
2023-05-19T06:36:45.746Z,12.28
2023-05-19T06:39:12.932Z,12.32
2023-05-19T06:41:40.594Z,12.34
2023-05-19T06:44:09.019Z,12.41
2023-05-19T06:46:35.689Z,12.46
2023-05-19T06:49:02.219Z,12.46
2023-05-19T06:51:32.619Z,12.42
2023-05-19T06:53:59.800Z,12.40
2023-05-19T06:56:27.220Z,12.40
2023-05-19T06:58:53.648Z,12.32
2023-05-19T07:01:26.440Z,12.24
2023-05-19T07:03:54.694Z,12.25
2023-05-19T07:06:21.291Z,12.28
2023-05-19T07:08:48.398Z,12.32
2023-05-19T07:11:16.865Z,12.40
2023-05-19T07:13:43.678Z,12.45
2023-05-19T07:16:10.736Z,12.51
2023-05-19T07:18:38.212Z,12.56
2023-05-19T07:21:04.773Z,12.62
2023-05-19T07:23:31.402Z,12.68
2023-05-19T07:25:57.947Z,12.67
2023-05-19T07:28:24.598Z,12.69
2023-05-19T07:30:51.842Z,12.71
2023-05-19T07:33:18.333Z,12.76
2023-05-19T07:35:45.637Z,12.80
2023-05-19T07:38:12.182Z,12.78
2023-05-19T07:40:38.671Z,12.73
2023-05-19T07:43:05.535Z,12.69
2023-05-19T07:45:32.133Z,12.72
2023-05-19T07:47:58.552Z,12.75
2023-05-19T07:50:25.462Z,12.77
2023-05-19T07:52:52.028Z,12.72
2023-05-19T07:55:19.113Z,12.64
2023-05-19T07:57:45.573Z,12.60
2023-05-19T08:00:12.645Z,12.55
2023-05-19T08:02:39.241Z,12.59
2023-05-19T08:05:06.204Z,12.69
2023-05-19T08:07:33.046Z,12.74
2023-05-19T08:09:59.564Z,12.80
2023-05-19T08:12:25.998Z,12.89
2023-05-19T08:14:52.661Z,13.02
2023-05-19T08:17:19.181Z,13.13
2023-05-19T08:19:45.788Z,13.19
2023-05-19T08:22:12.264Z,13.20
2023-05-19T08:24:39.212Z,13.22
2023-05-19T08:27:06.718Z,13.25
2023-05-19T08:29:33.162Z,13.31
2023-05-19T08:32:00.273Z,13.40
2023-05-19T08:34:26.735Z,13.49
2023-05-19T08:36:53.507Z,13.55
2023-05-19T08:39:24.123Z,13.66
2023-05-19T08:41:50.668Z,13.74
2023-05-19T08:44:19.033Z,13.79
2023-05-19T08:46:47.602Z,13.71
2023-05-19T08:49:16.596Z,13.62
2023-05-19T08:52:24.167Z,13.62
2023-05-19T08:54:55.725Z,13.69
2023-05-19T08:57:24.881Z,13.75
2023-05-19T08:59:52.246Z,13.74
2023-05-19T09:02:19.703Z,13.78
2023-05-19T09:04:48.102Z,13.75
2023-05-19T09:07:15.512Z,13.73
2023-05-19T09:09:44.080Z,13.78
2023-05-19T09:12:11.449Z,13.88
2023-05-19T09:14:38.637Z,14.00
2023-05-19T09:17:06.262Z,14.10
2023-05-19T09:19:32.945Z,14.17
2023-05-19T09:22:01.112Z,14.26
2023-05-19T09:24:28.310Z,14.23
2023-05-19T09:26:59.900Z,14.27
2023-05-19T09:29:26.823Z,14.38
2023-05-19T09:31:56.021Z,14.43
2023-05-19T09:34:24.803Z,14.42
2023-05-19T09:36:53.386Z,14.44
2023-05-19T09:39:21.506Z,14.50
2023-05-19T09:41:51.971Z,14.50
2023-05-19T09:44:23.370Z,14.57
2023-05-19T09:46:50.499Z,14.63
2023-05-19T09:49:21.688Z,14.75
2023-05-19T09:51:54.738Z,14.82
2023-05-19T09:54:23.604Z,14.79
2023-05-19T09:57:16.949Z,14.84
2023-05-19T09:59:43.566Z,14.95
2023-05-19T10:02:18.010Z,14.96
2023-05-19T10:04:45.107Z,14.97
2023-05-19T10:07:15.276Z,15.03
2023-05-19T10:09:42.792Z,15.14
2023-05-19T10:12:11.104Z,15.23
2023-05-19T10:14:38.141Z,15.18
2023-05-19T10:17:05.121Z,15.14
2023-05-19T10:19:31.647Z,15.26
2023-05-19T10:21:58.179Z,15.32
2023-05-19T10:24:24.668Z,15.40
2023-05-19T10:27:03.518Z,15.41
2023-05-19T10:29:33.541Z,15.42
2023-05-19T10:32:06.773Z,15.54
2023-05-19T10:34:51.841Z,15.60
2023-05-19T10:37:45.545Z,15.69
2023-05-19T10:40:30.076Z,15.66
2023-05-19T10:43:02.744Z,15.64
2023-05-19T10:45:34.786Z,15.58
2023-05-19T10:48:01.731Z,15.52
2023-05-19T10:50:36.908Z,15.52
2023-05-19T10:53:03.426Z,15.54
2023-05-19T10:56:04.528Z,15.57
2023-05-19T10:58:43.202Z,15.63
2023-05-19T11:01:14.233Z,15.66
2023-05-19T11:03:49.724Z,15.69
2023-05-19T11:06:28.115Z,15.72
2023-05-19T11:08:58.762Z,15.74
2023-05-19T11:11:26.238Z,15.68
2023-05-19T11:13:55.185Z,15.66
2023-05-19T11:16:48.283Z,15.66
2023-05-19T11:19:20.037Z,15.73
2023-05-19T11:21:52.281Z,15.86
2023-05-19T11:24:40.067Z,15.91
2023-05-19T11:27:32.678Z,15.90
2023-05-19T11:30:11.776Z,15.97
2023-05-19T11:32:44.180Z,16.01
2023-05-19T11:35:11.124Z,16.09
2023-05-19T11:37:37.610Z,16.10
2023-05-19T11:40:08.255Z,16.14
2023-05-19T11:42:36.199Z,16.19
2023-05-19T11:45:03.874Z,16.25
2023-05-19T11:47:38.797Z,16.28
2023-05-19T11:50:11.594Z,16.29
2023-05-19T11:52:43.846Z,16.28
2023-05-19T11:55:15.624Z,16.35
2023-05-19T11:57:56.002Z,16.43
2023-05-19T12:00:31.203Z,16.58
2023-05-19T12:02:58.162Z,16.70
2023-05-19T12:05:26.705Z,16.73
2023-05-19T12:07:53.353Z,16.72
2023-05-19T12:10:31.287Z,16.71
2023-05-19T12:12:58.545Z,16.65
2023-05-19T12:15:25.645Z,16.60
2023-05-19T12:17:58.267Z,16.62
2023-05-19T12:20:26.698Z,16.72
2023-05-19T12:22:55.588Z,16.75
2023-05-19T12:25:22.787Z,16.71
2023-05-19T12:27:49.654Z,16.67
2023-05-19T12:30:16.777Z,16.69
2023-05-19T12:32:44.152Z,16.66
2023-05-19T12:35:10.981Z,16.70
2023-05-19T12:37:41.696Z,16.84
2023-05-19T12:40:09.835Z,16.94
2023-05-19T12:42:36.348Z,16.98
2023-05-19T12:45:04.637Z,17.04
2023-05-19T12:47:34.648Z,17.02
2023-05-19T12:50:03.881Z,16.88
2023-05-19T12:52:35.408Z,16.84
2023-05-19T12:55:07.352Z,16.92
2023-05-19T12:57:35.764Z,17.09
2023-05-19T13:00:06.798Z,17.18
2023-05-19T13:02:35.494Z,17.22
2023-05-19T13:05:02.703Z,17.21
2023-05-19T13:07:29.583Z,17.23
2023-05-19T13:09:56.660Z,17.30
2023-05-19T13:12:23.156Z,17.38
2023-05-19T13:14:49.617Z,17.47
2023-05-19T13:17:16.161Z,17.50
2023-05-19T13:19:42.750Z,17.49
2023-05-19T13:22:09.259Z,17.49
2023-05-19T13:24:35.725Z,17.63
2023-05-19T13:27:03.157Z,17.67
2023-05-19T13:29:29.712Z,17.66
2023-05-19T13:31:56.159Z,17.54
2023-05-19T13:34:23.109Z,17.60
2023-05-19T13:36:49.641Z,17.62
2023-05-19T13:39:16.215Z,17.57
2023-05-19T13:41:42.627Z,17.62
2023-05-19T13:44:09.139Z,17.64
2023-05-19T13:46:44.799Z,17.65
2023-05-19T13:49:12.900Z,17.70
2023-05-19T13:51:42.200Z,17.71
2023-05-19T13:54:08.783Z,17.64
2023-05-19T13:56:35.262Z,17.71
2023-05-19T13:59:02.664Z,17.79
2023-05-19T14:01:32.754Z,17.89
2023-05-19T14:04:00.557Z,17.89
2023-05-19T14:06:27.913Z,17.86
2023-05-19T14:08:54.428Z,17.80
2023-05-19T14:11:21.427Z,17.71
2023-05-19T14:13:52.729Z,17.63
2023-05-19T14:16:20.434Z,17.61
2023-05-19T14:18:47.386Z,17.64
2023-05-19T14:21:14.009Z,17.57
2023-05-19T14:23:40.743Z,17.54
2023-05-19T14:26:07.362Z,17.58
2023-05-19T14:28:33.923Z,17.55
2023-05-19T14:31:00.404Z,17.61
2023-05-19T14:33:26.950Z,17.63
2023-05-19T14:35:53.590Z,17.60
2023-05-19T14:38:20.017Z,17.53
2023-05-19T14:40:48.399Z,17.57
2023-05-19T14:43:14.906Z,17.60
2023-05-19T14:45:44.316Z,17.57
2023-05-19T14:48:11.836Z,17.62
2023-05-19T14:50:38.867Z,17.66
2023-05-19T14:53:05.994Z,17.74
2023-05-19T14:55:32.504Z,17.78
2023-05-19T14:57:58.967Z,17.82
2023-05-19T15:00:28.402Z,17.78
2023-05-19T15:02:54.981Z,17.73
2023-05-19T15:05:23.998Z,17.65
2023-05-19T15:07:51.009Z,17.61
2023-05-19T15:10:20.419Z,17.69
2023-05-19T15:12:47.019Z,17.73
2023-05-19T15:15:15.463Z,17.75
2023-05-19T15:17:42.448Z,17.82
2023-05-19T15:20:09.364Z,17.89
2023-05-19T15:22:36.365Z,17.91
2023-05-19T15:25:02.809Z,17.81
2023-05-19T15:27:29.371Z,17.85
2023-05-19T15:29:56.346Z,17.79
2023-05-19T15:32:22.823Z,17.85
2023-05-19T15:34:49.355Z,17.90
2023-05-19T15:37:15.915Z,17.98
2023-05-19T15:39:42.406Z,17.99
2023-05-19T15:42:08.971Z,18.00
2023-05-19T15:44:36.599Z,18.02
2023-05-19T15:47:03.149Z,17.97
2023-05-19T15:49:29.694Z,17.93
2023-05-19T15:51:56.151Z,17.89
2023-05-19T15:54:22.657Z,17.81
2023-05-19T15:56:49.169Z,17.74
2023-05-19T15:59:15.707Z,17.75
2023-05-19T16:01:42.553Z,17.78
2023-05-19T16:04:09.083Z,17.73
2023-05-19T16:06:35.718Z,17.72
2023-05-19T16:09:02.263Z,17.71
2023-05-19T16:11:28.730Z,17.68
2023-05-19T16:13:55.181Z,17.63
2023-05-19T16:16:21.758Z,17.62
2023-05-19T16:18:48.476Z,17.55
2023-05-19T16:21:15.045Z,17.48
2023-05-19T16:23:41.534Z,17.48
2023-05-19T16:26:08.017Z,17.47
2023-05-19T16:28:34.467Z,17.46
2023-05-19T16:31:01.216Z,17.43
2023-05-19T16:33:28.281Z,17.43
2023-05-19T16:35:54.743Z,17.48
2023-05-19T16:38:21.272Z,17.48
2023-05-19T16:40:47.735Z,17.48
2023-05-19T16:43:14.205Z,17.42
2023-05-19T16:45:40.668Z,17.45
2023-05-19T16:48:07.207Z,17.43
2023-05-19T16:50:34.679Z,17.36
2023-05-19T16:53:01.213Z,17.32
2023-05-19T16:55:27.692Z,17.30
2023-05-19T16:57:54.172Z,17.31
2023-05-19T17:00:20.915Z,17.37
2023-05-19T17:02:47.532Z,17.37
2023-05-19T17:05:14.233Z,17.36
2023-05-19T17:07:40.688Z,17.30
2023-05-19T17:10:07.624Z,17.29
2023-05-19T17:12:34.330Z,17.29
2023-05-19T17:15:00.823Z,17.30
2023-05-19T17:17:27.350Z,17.30
2023-05-19T17:19:53.910Z,17.27
2023-05-19T17:22:20.407Z,17.19
2023-05-19T17:24:47.209Z,17.13
2023-05-19T17:27:15.039Z,17.07
2023-05-19T17:29:41.614Z,17.07
2023-05-19T17:32:08.241Z,17.02
2023-05-19T17:34:34.874Z,17.05
2023-05-19T17:37:01.485Z,17.04
2023-05-19T17:39:28.007Z,16.97
2023-05-19T17:41:54.415Z,16.91
2023-05-19T17:44:21.244Z,16.87
2023-05-19T17:46:47.877Z,16.85
2023-05-19T17:49:15.209Z,16.88
2023-05-19T17:51:41.963Z,16.93
2023-05-19T17:54:08.643Z,16.92
2023-05-19T17:56:41.841Z,16.85
2023-05-19T17:59:08.588Z,16.82
2023-05-19T18:01:35.394Z,16.80
2023-05-19T18:04:02.292Z,16.83
2023-05-19T18:06:29.394Z,16.85
2023-05-19T18:09:00.347Z,16.85
2023-05-19T18:11:27.077Z,16.77
2023-05-19T18:13:53.516Z,16.73
2023-05-19T18:16:19.937Z,16.73
2023-05-19T18:18:50.189Z,16.73
2023-05-19T18:21:17.786Z,16.74
2023-05-19T18:23:45.582Z,16.65
2023-05-19T18:26:15.787Z,16.59
2023-05-19T18:28:42.312Z,16.54
2023-05-19T18:31:09.277Z,16.53
2023-05-19T18:33:35.798Z,16.55
2023-05-19T18:36:02.268Z,16.53
2023-05-19T18:38:28.732Z,16.48
2023-05-19T18:40:56.543Z,16.47
2023-05-19T18:43:23.020Z,16.46
2023-05-19T18:45:49.605Z,16.49
2023-05-19T18:48:16.277Z,16.48
2023-05-19T18:50:44.499Z,16.42
2023-05-19T18:53:11.809Z,16.39
2023-05-19T18:55:38.687Z,16.35
2023-05-19T18:58:06.028Z,16.30
2023-05-19T19:00:33.084Z,16.27
2023-05-19T19:02:59.927Z,16.24
2023-05-19T19:05:26.450Z,16.23
2023-05-19T19:07:53.290Z,16.16
2023-05-19T19:10:19.883Z,16.14
2023-05-19T19:12:46.432Z,16.12
2023-05-19T19:15:12.995Z,16.07
2023-05-19T19:17:42.393Z,16.01
2023-05-19T19:20:09.311Z,16.00
2023-05-19T19:22:35.851Z,16.00
2023-05-19T19:25:02.323Z,16.01
2023-05-19T19:27:30.824Z,15.97
2023-05-19T19:29:58.542Z,15.95
2023-05-19T19:32:25.382Z,15.89
2023-05-19T19:34:53.255Z,15.85
2023-05-19T19:37:19.836Z,15.88
2023-05-19T19:39:46.692Z,15.90
2023-05-19T19:42:13.220Z,15.93
2023-05-19T19:44:39.653Z,15.96
2023-05-19T19:47:06.403Z,15.91
2023-05-19T19:49:33.613Z,15.88
2023-05-19T19:52:00.196Z,15.84
2023-05-19T19:54:27.038Z,15.80
2023-05-19T19:56:53.510Z,15.79
2023-05-19T19:59:19.926Z,15.74
2023-05-19T20:01:46.485Z,15.70
2023-05-19T20:04:13.204Z,15.67
2023-05-19T20:06:39.936Z,15.69
2023-05-19T20:09:06.811Z,15.71
2023-05-19T20:11:33.298Z,15.69
2023-05-19T20:13:59.727Z,15.65
2023-05-19T20:16:26.376Z,15.59
2023-05-19T20:18:52.894Z,15.59
2023-05-19T20:21:19.333Z,15.55
2023-05-19T20:23:46.174Z,15.49
2023-05-19T20:26:13.557Z,15.45
2023-05-19T20:28:40.401Z,15.47
2023-05-19T20:31:07.316Z,15.50
2023-05-19T20:33:33.894Z,15.51
2023-05-19T20:36:00.482Z,15.48
2023-05-19T20:38:27.293Z,15.50
2023-05-19T20:40:54.453Z,15.53
2023-05-19T20:43:21.184Z,15.53
2023-05-19T20:45:47.852Z,15.46
2023-05-19T20:48:15.805Z,15.43
2023-05-19T20:50:42.447Z,15.43
2023-05-19T20:53:08.998Z,15.43
2023-05-19T20:55:36.524Z,15.47
2023-05-19T20:58:03.006Z,15.49
2023-05-19T21:00:30.597Z,15.45
2023-05-19T21:02:57.368Z,15.32
2023-05-19T21:05:23.949Z,15.24
2023-05-19T21:07:50.549Z,15.23
2023-05-19T21:10:17.789Z,15.25
2023-05-19T21:12:44.249Z,15.25
2023-05-19T21:15:11.156Z,15.27
2023-05-19T21:17:37.596Z,15.19
2023-05-19T21:20:04.630Z,15.16
2023-05-19T21:22:31.376Z,15.18
2023-05-19T21:24:57.952Z,15.20
2023-05-19T21:27:24.478Z,15.14
2023-05-19T21:29:53.099Z,15.15
2023-05-19T21:32:20.603Z,15.09
2023-05-19T21:34:47.582Z,15.08
2023-05-19T21:37:14.160Z,15.01
2023-05-19T21:39:40.579Z,14.96
2023-05-19T21:42:07.002Z,14.90
2023-05-19T21:44:33.577Z,14.90
2023-05-19T21:47:00.462Z,14.88
2023-05-19T21:49:26.950Z,14.85
2023-05-19T21:51:53.407Z,14.81
2023-05-19T21:54:19.842Z,14.74
2023-05-19T21:56:46.347Z,14.71
2023-05-19T21:59:12.820Z,14.67
2023-05-19T22:01:39.434Z,14.69
2023-05-19T22:04:06.128Z,14.67
2023-05-19T22:06:33.475Z,14.66
2023-05-19T22:09:02.153Z,14.68
2023-05-19T22:11:28.649Z,14.68
2023-05-19T22:13:55.153Z,14.65
2023-05-19T22:16:21.753Z,14.69
2023-05-19T22:18:48.400Z,14.63
2023-05-19T22:21:14.835Z,14.52
2023-05-19T22:23:41.281Z,14.43
2023-05-19T22:26:07.846Z,14.42
2023-05-19T22:28:34.352Z,14.41
2023-05-19T22:31:00.769Z,14.39
2023-05-19T22:33:27.203Z,14.36
2023-05-19T22:35:53.810Z,14.35
2023-05-19T22:38:20.451Z,14.33
2023-05-19T22:40:46.979Z,14.30
2023-05-19T22:43:13.413Z,14.25
2023-05-19T22:45:40.028Z,14.28
2023-05-19T22:48:06.817Z,14.25
2023-05-19T22:50:33.395Z,14.28
2023-05-19T22:52:59.899Z,14.31
2023-05-19T22:55:26.446Z,14.28
2023-05-19T22:57:52.968Z,14.25
2023-05-19T23:00:20.686Z,14.19
2023-05-19T23:02:47.365Z,14.15
2023-05-19T23:05:13.852Z,14.22
2023-05-19T23:07:40.516Z,14.17
2023-05-19T23:10:07.669Z,14.09
2023-05-19T23:12:34.202Z,14.10
2023-05-19T23:15:01.093Z,14.06
2023-05-19T23:17:27.638Z,14.04
2023-05-19T23:19:54.092Z,14.01
2023-05-19T23:22:20.614Z,14.05
2023-05-19T23:24:47.240Z,14.09
2023-05-19T23:27:13.679Z,14.10
2023-05-19T23:29:40.156Z,14.06
2023-05-19T23:32:07.086Z,14.02
2023-05-19T23:34:33.545Z,14.06
2023-05-19T23:37:00.086Z,14.12
2023-05-19T23:39:26.778Z,14.18
2023-05-19T23:41:53.294Z,14.14
2023-05-19T23:44:19.848Z,14.05
2023-05-19T23:46:46.476Z,14.10
2023-05-19T23:49:13.098Z,14.04
2023-05-19T23:51:40.664Z,14.00
2023-05-19T23:54:07.156Z,14.02
2023-05-19T23:56:33.643Z,14.04
2023-05-19T23:59:00.137Z,14.08
